Time;durP1;ratioP1;P1;durP2;ratioP2;P2;SDS_P1;SDS_P2;PMS_P1;PMS_P2;Temp;Humidity;BMP_temperature;BMP_pressure;BME280_temperature;BME280_humidity;BME280_pressure;Samples;Min_cycle;Max_cycle;Signal;HPM_P1;HPM_P2
2024/03/13 00:00:10;;;;;;;;;;;;;;;;;;2197622;59;2427;-78
2024/03/13 00:02:41;;;;;;;;;;;;;;;;;;2199082;67;3597;-78
2024/03/13 00:05:11;;;;;;;;;;;;;;;;;;2199446;67;1848;-78
2024/03/13 00:07:42;;;;;;;;;;;;;;;;;;2200491;59;2837;-78
2024/03/13 00:10:12;;;;;;;;;;;;;;;;;;2198926;59;2540;-78
2024/03/13 00:12:42;;;;;;;;;;;;;;;;;;2200434;67;2486;-78
2024/03/13 00:15:13;;;;;;;;;;;;;;;;;;2200587;59;2626;-78
2024/03/13 00:17:44;;;;;;;;;;;;;;;;;;2203264;59;2409;-78
2024/03/13 00:20:15;;;;;;;;;;;;;;;;;;2204494;67;1865;-77
2024/03/13 00:22:47;;;;;;;;;;;;;;;;;;2202101;59;2345;-78
2024/03/13 00:25:19;;;;;;;;;;;;;;;;;;2207387;59;2237;-78
2024/03/13 00:27:49;;;;;;;;;;;;;;;;;;2205357;59;2716;-78
2024/03/13 00:30:20;;;;;;;;;;;;;;;;;;2203818;59;2329;-78
2024/03/13 00:32:53;;;;;;;;;;;;;;;;;;2198587;59;2486;-78
2024/03/13 00:35:24;;;;;;;;;;;;;;;;;;2199794;59;2262;-78
2024/03/13 00:37:54;;;;;;;;;;;;;;;;;;2198593;59;2475;-78
2024/03/13 00:40:24;;;;;;;;;;;;;;;;;;2199580;59;2285;-80
2024/03/13 00:42:54;;;;;;;;;;;;;;;;;;2201428;59;2245;-81
2024/03/13 00:45:24;;;;;;;;;;;;;;;;;;2202757;59;2294;-81
2024/03/13 00:47:55;;;;;;;;;;;;;;;;;;2197838;59;2634;-78
2024/03/13 00:50:25;;;;;;;;;;;;;;;;;;2199544;59;1940;-78
2024/03/13 00:52:56;;;;;;;;;;;;;;;;;;2197614;67;2563;-78
2024/03/13 00:55:27;;;;;;;;;;;;;;;;;;2199830;59;2636;-78
2024/03/13 00:57:57;;;;;;;;;;;;;;;;;;2197136;59;2514;-78
2024/03/13 01:00:30;;;;;;;;;;;;;;;;;;2199072;59;2392;-78
2024/03/13 01:03:02;;;;;;;;;;;;;;;;;;2197182;67;2747;-77
2024/03/13 01:05:32;;;;;;;;;;;;;;;;;;2202729;59;2227;-80
2024/03/13 01:08:03;;;;;;;;;;;;;;;;;;2200940;67;2328;-80
2024/03/13 01:10:33;;;;;;;;;;;;;;;;;;2202621;59;2390;-80
2024/03/13 01:13:05;;;;;;;;;;;;;;;;;;2201616;59;2633;-80
2024/03/13 01:15:35;;;;;;;;;;;;;;;;;;2203221;59;2383;-80
2024/03/13 01:18:09;;;;;;;;;;;;;;;;;;2198021;59;2568;-80
2024/03/13 01:20:40;;;;;;;;;;;;;;;;;;2204883;59;2541;-80
2024/03/13 01:23:10;;;;;;;;;;;;;;;;;;2200909;59;2949;-80
2024/03/13 01:25:41;;;;;;;;;;;;;;;;;;2203195;59;1840;-80
2024/03/13 01:28:12;;;;;;;;;;;;;;;;;;2201867;59;2713;-80
2024/03/13 01:30:43;;;;;;;;;;;;;;;;;;2202501;59;1951;-80
2024/03/13 01:33:13;;;;;;;;;;;;;;;;;;2201020;67;3105;-80
2024/03/13 01:35:43;;;;;;;;;;;;;;;;;;2205456;59;2507;-81
2024/03/13 01:38:13;;;;;;;;;;;;;;;;;;2204605;59;2266;-81
2024/03/13 01:55:25;;;;;;;;;;;;;;;;;;2203554;59;2525;-80
2024/03/13 02:03:26;;;;;;;;;;;;;;;;;;2214174;67;2471;-80
2024/03/13 02:05:57;;;;;;;;;;;;;;;;;;2214725;67;2502;-80
2024/03/13 02:08:32;;;;;;;;;;;;;;;;;;2214606;59;2293;-80
2024/03/13 02:11:02;;;;;;;;;;;;;;;;;;2213695;67;2916;-81
2024/03/13 02:13:32;;;;;;;;;;;;;;;;;;2213426;59;2865;-80
2024/03/13 02:16:05;;;;;;;;;;;;;;;;;;2213187;67;2717;-80
2024/03/13 02:18:35;;;;;;;;;;;;;;;;;;2214428;59;2253;-80
2024/03/13 02:21:05;;;;;;;;;;;;;;;;;;2210805;59;3297;-80
2024/03/13 02:23:35;;;;;;;;;;;;;;;;;;2204963;59;2644;-80
2024/03/13 02:26:05;;;;;;;;;;;;;;;;;;2203461;59;2667;-80
2024/03/13 02:28:37;;;;;;;;;;;;;;;;;;2205066;67;3009;-80
2024/03/13 02:31:07;;;;;;;;;;;;;;;;;;2203702;67;2359;-80
2024/03/13 02:33:37;;;;;;;;;;;;;;;;;;2204402;59;3900;-80
2024/03/13 02:36:07;;;;;;;;;;;;;;;;;;2203490;59;3006;-79
2024/03/13 02:38:37;;;;;;;;;;;;;;;;;;2204088;59;2632;-80
2024/03/13 02:41:08;;;;;;;;;;;;;;;;;;2202727;59;2365;-80
2024/03/13 02:43:40;;;;;;;;;;;;;;;;;;2204036;59;2125;-80
2024/03/13 02:46:12;;;;;;;;;;;;;;;;;;2204015;59;3202;-80
2024/03/13 02:48:42;;;;;;;;;;;;;;;;;;2203139;59;2473;-80
2024/03/13 02:51:12;;;;;;;;;;;;;;;;;;2202513;59;2405;-81
2024/03/13 02:53:43;;;;;;;;;;;;;;;;;;2203123;59;2659;-80
2024/03/13 02:56:13;;;;;;;;;;;;;;;;;;2202459;67;3103;-80
2024/03/13 02:58:45;;;;;;;;;;;;;;;;;;2203694;59;2277;-80
2024/03/13 03:01:16;;;;;;;;;;;;;;;;;;2203316;59;2409;-80
2024/03/13 03:03:46;;;;;;;;;;;;;;;;;;2203421;59;3340;-80
2024/03/13 03:06:16;;;;;;;;;;;;;;;;;;2202344;59;2700;-80
2024/03/13 03:08:46;;;;;;;;;;;;;;;;;;2203339;59;2467;-80
2024/03/13 03:11:16;;;;;;;;;;;;;;;;;;2202735;67;2699;-80
2024/03/13 03:13:47;;;;;;;;;;;;;;;;;;2203927;59;2515;-80
2024/03/13 03:16:18;;;;;;;;;;;;;;;;;;2202746;67;2544;-80
2024/03/13 03:18:49;;;;;;;;;;;;;;;;;;2204434;59;1882;-80
2024/03/13 03:21:22;;;;;;;;;;;;;;;;;;2203217;59;2507;-81
2024/03/13 03:23:54;;;;;;;;;;;;;;;;;;2206589;67;1749;-80
2024/03/13 03:26:28;;;;;;;;;;;;;;;;;;2203391;59;2299;-81
2024/03/13 03:28:58;;;;;;;;;;;;;;;;;;2203657;59;2452;-79
2024/03/13 03:31:28;;;;;;;;;;;;;;;;;;2204369;67;1984;-80
2024/03/13 03:33:58;;;;;;;;;;;;;;;;;;2204261;59;2721;-80
2024/03/13 03:36:28;;;;;;;;;;;;;;;;;;2203907;67;2092;-80
2024/03/13 03:38:58;;;;;;;;;;;;;;;;;;2204081;59;2370;-80
2024/03/13 03:41:29;;;;;;;;;;;;;;;;;;2203595;59;1815;-80
2024/03/13 03:43:59;;;;;;;;;;;;;;;;;;2203931;59;1779;-80
2024/03/13 03:46:29;;;;;;;;;;;;;;;;;;2204414;59;3009;-80
2024/03/13 03:49:00;;;;;;;;;;;;;;;;;;2203773;59;2284;-79
2024/03/13 03:51:30;;;;;;;;;;;;;;;;;;2202993;67;2875;-79
2024/03/13 03:54:01;;;;;;;;;;;;;;;;;;2204194;59;3215;-79
2024/03/13 03:56:32;;;;;;;;;;;;;;;;;;2203975;59;2545;-78
2024/03/13 03:59:02;;;;;;;;;;;;;;;;;;2202254;67;2852;-78
2024/03/13 04:01:32;;;;;;;;;;;;;;;;;;2203752;59;1281;-78
2024/03/13 04:04:05;;;;;;;;;;;;;;;;;;2204246;67;1622;-79
2024/03/13 04:06:35;;;;;;;;;;;;;;;;;;2204440;67;1305;-79
2024/03/13 04:09:14;;;;;;;;;;;;;;;;;;2206269;67;1838;-79
2024/03/13 04:11:44;;;;;;;;;;;;;;;;;;2204720;59;1998;-79
2024/03/13 04:14:18;;;;;;;;;;;;;;;;;;2203016;59;1392;-79
2024/03/13 04:16:48;;;;;;;;;;;;;;;;;;2204333;59;1211;-79
2024/03/13 04:19:18;;;;;;;;;;;;;;;;;;2203518;59;1578;-79
2024/03/13 04:21:48;;;;;;;;;;;;;;;;;;2203473;67;1277;-79
2024/03/13 04:24:19;;;;;;;;;;;;;;;;;;2204437;67;1616;-78
2024/03/13 04:26:49;;;;;;;;;;;;;;;;;;2203677;67;1504;-79
2024/03/13 04:29:21;;;;;;;;;;;;;;;;;;2202680;59;1535;-79
2024/03/13 04:31:51;;;;;;;;;;;;;;;;;;2203843;59;2043;-78
2024/03/13 04:34:21;;;;;;;;;;;;;;;;;;2203206;59;1839;-79
2024/03/13 04:36:51;;;;;;;;;;;;;;;;;;2204264;59;1275;-79
2024/03/13 04:39:22;;;;;;;;;;;;;;;;;;2203120;59;1831;-79
2024/03/13 04:41:52;;;;;;;;;;;;;;;;;;2204057;59;1266;-79
2024/03/13 04:44:22;;;;;;;;;;;;;;;;;;2203627;59;1613;-79
2024/03/13 04:46:52;;;;;;;;;;;;;;;;;;2204733;59;1577;-79
2024/03/13 04:49:23;;;;;;;;;;;;;;;;;;2204028;67;1377;-79
2024/03/13 04:51:56;;;;;;;;;;;;;;;;;;2202979;67;1977;-79
2024/03/13 04:54:26;;;;;;;;;;;;;;;;;;2203116;59;1442;-78
2024/03/13 04:56:56;;;;;;;;;;;;;;;;;;2203991;67;1314;-79
2024/03/13 04:59:26;;;;;;;;;;;;;;;;;;2203672;67;1653;-78
2024/03/13 05:01:56;;;;;;;;;;;;;;;;;;2204242;67;1291;-79
2024/03/13 05:04:26;;;;;;;;;;;;;;;;;;2203430;67;1651;-79
2024/03/13 05:07:01;;;;;;;;;;;;;;;;;;2203467;67;1561;-79
2024/03/13 05:09:32;;;;;;;;;;;;;;;;;;2203486;67;1591;-79
2024/03/13 05:12:03;;;;;;;;;;;;;;;;;;2203043;67;1912;-79
2024/03/13 05:14:34;;;;;;;;;;;;;;;;;;2203952;67;1332;-79
2024/03/13 05:17:04;;;;;;;;;;;;;;;;;;2203003;59;1440;-79
2024/03/13 05:19:34;;;;;;;;;;;;;;;;;;2204724;67;1207;-79
2024/03/13 05:22:04;;;;;;;;;;;;;;;;;;2202780;67;1402;-79
2024/03/13 05:24:35;;;;;;;;;;;;;;;;;;2203622;67;1541;-78
2024/03/13 05:27:05;;;;;;;;;;;;;;;;;;2203471;67;1516;-79
2024/03/13 05:29:36;;;;;;;;;;;;;;;;;;2204063;67;1566;-79
2024/03/13 05:32:07;;;;;;;;;;;;;;;;;;2203429;67;1900;-79
2024/03/13 05:34:37;;;;;;;;;;;;;;;;;;2204070;59;1501;-79
2024/03/13 05:37:07;;;;;;;;;;;;;;;;;;2203451;59;1323;-78
2024/03/13 05:39:38;;;;;;;;;;;;;;;;;;2204643;59;1869;-79
2024/03/13 05:42:08;;;;;;;;;;;;;;;;;;2204125;59;1320;-79
2024/03/13 05:44:39;;;;;;;;;;;;;;;;;;2204056;59;1584;-79
2024/03/13 05:47:09;;;;;;;;;;;;;;;;;;2203342;67;1551;-79
2024/03/13 05:49:41;;;;;;;;;;;;;;;;;;2203908;67;1294;-79
2024/03/13 05:52:11;;;;;;;;;;;;;;;;;;2203261;67;1996;-79
2024/03/13 05:54:41;;;;;;;;;;;;;;;;;;2204200;67;1296;-79
2024/03/13 05:57:12;;;;;;;;;;;;;;;;;;2204675;59;2386;-79
2024/03/13 05:59:42;;;;;;;;;;;;;;;;;;2204765;59;1390;-79
2024/03/13 06:02:13;;;;;;;;;;;;;;;;;;2203906;67;1316;-79
2024/03/13 06:04:45;;;;;;;;;;;;;;;;;;2203954;67;1968;-79
2024/03/13 06:07:15;;;;;;;;;;;;;;;;;;2203701;67;1975;-79
2024/03/13 06:09:46;;;;;;;;;;;;;;;;;;2205200;67;1443;-79
2024/03/13 06:12:16;;;;;;;;;;;;;;;;;;2204840;67;2367;-78
2024/03/13 06:14:48;;;;;;;;;;;;;;;;;;2205040;67;1722;-79
2024/03/13 06:17:18;;;;;;;;;;;;;;;;;;2204513;59;1596;-78
2024/03/13 06:19:48;;;;;;;;;;;;;;;;;;2204317;67;1388;-80
2024/03/13 06:22:18;;;;;;;;;;;;;;;;;;2203997;67;1284;-79
2024/03/13 06:24:49;;;;;;;;;;;;;;;;;;2203262;67;1500;-79
2024/03/13 06:27:27;;;;;;;;;;;;;;;;;;2203892;67;1162;-79
2024/03/13 06:29:58;;;;;;;;;;;;;;;;;;2204075;59;1345;-79
2024/03/13 06:32:28;;;;;;;;;;;;;;;;;;2203387;59;1996;-79
2024/03/13 06:35:00;;;;;;;;;;;;;;;;;;2204455;59;1799;-79
2024/03/13 06:37:31;;;;;;;;;;;;;;;;;;2204411;59;1473;-79
2024/03/13 06:40:03;;;;;;;;;;;;;;;;;;2205033;67;1779;-79
2024/03/13 06:42:33;;;;;;;;;;;;;;;;;;2203473;59;1577;-79
2024/03/13 06:45:03;;;;;;;;;;;;;;;;;;2205228;59;1500;-79
2024/03/13 06:47:34;;;;;;;;;;;;;;;;;;2201178;59;1544;-79
2024/03/13 06:50:04;;;;;;;;;;;;;;;;;;2204197;60;1245;-79
2024/03/13 06:52:34;;;;;;;;;;;;;;;;;;2209752;59;1944;-79
2024/03/13 06:55:04;;;;;;;;;;;;;;;;;;2213731;59;1564;-78
2024/03/13 06:57:35;;;;;;;;;;;;;;;;;;2208035;67;1507;-79
2024/03/13 07:00:05;;;;;;;;;;;;;;;;;;2203144;59;1098;-79
2024/03/13 07:02:37;;;;;;;;;;;;;;;;;;2202688;67;2130;-79
2024/03/13 07:05:08;;;;;;;;;;;;;;;;;;2204706;67;1141;-79
2024/03/13 07:07:40;;;;;;;;;;;;;;;;;;2202265;59;1437;-79
2024/03/13 07:10:10;;;;;;;;;;;;;;;;;;2204084;59;2213;-79
2024/03/13 07:12:40;;;;;;;;;;;;;;;;;;2203735;59;1439;-79
2024/03/13 07:15:11;;;;;;;;;;;;;;;;;;2203551;59;1747;-79
2024/03/13 07:17:42;;;;;;;;;;;;;;;;;;2205339;59;1687;-79
2024/03/13 07:20:13;;;;;;;;;;;;;;;;;;2202864;59;2218;-78
2024/03/13 07:22:43;;;;;;;;;;;;;;;;;;2202362;67;2260;-79
2024/03/13 07:25:14;;;;;;;;;;;;;;;;;;2203632;59;2291;-79
2024/03/13 07:27:44;;;;;;;;;;;;;;;;;;2203414;59;2137;-79
2024/03/13 07:30:14;;;;;;;;;;;;;;;;;;2202195;67;1980;-79
2024/03/13 07:32:45;;;;;;;;;;;;;;;;;;2204912;59;1403;-79
2024/03/13 07:35:16;;;;;;;;;;;;;;;;;;2211040;59;1830;-79
2024/03/13 07:37:46;;;;;;;;;;;;;;;;;;2211993;59;2000;-78
2024/03/13 07:40:16;;;;;;;;;;;;;;;;;;2204367;59;2121;-79
2024/03/13 07:42:47;;;;;;;;;;;;;;;;;;2202742;59;2660;-79
2024/03/13 07:45:17;;;;;;;;;;;;;;;;;;2202111;59;2536;-79
2024/03/13 07:47:47;;;;;;;;;;;;;;;;;;2205065;59;2432;-79
2024/03/13 07:50:17;;;;;;;;;;;;;;;;;;2200483;59;2210;-78
2024/03/13 07:52:47;;;;;;;;;;;;;;;;;;2201681;59;2201;-79
2024/03/13 07:55:18;;;;;;;;;;;;;;;;;;2200427;59;3443;-79
2024/03/13 07:57:48;;;;;;;;;;;;;;;;;;2201230;59;2409;-79
2024/03/13 08:00:18;;;;;;;;;;;;;;;;;;2201160;59;2348;-79
2024/03/13 08:02:48;;;;;;;;;;;;;;;;;;2200859;59;2711;-79
2024/03/13 08:05:19;;;;;;;;;;;;;;;;;;2201598;59;2168;-79
2024/03/13 08:07:49;;;;;;;;;;;;;;;;;;2201282;59;2194;-79
2024/03/13 08:10:21;;;;;;;;;;;;;;;;;;2200677;59;2273;-79
2024/03/13 08:12:54;;;;;;;;;;;;;;;;;;2201348;59;2282;-79
2024/03/13 08:15:25;;;;;;;;;;;;;;;;;;2200783;59;2242;-79
2024/03/13 08:17:56;;;;;;;;;;;;;;;;;;2201333;59;2261;-79
2024/03/13 08:20:26;;;;;;;;;;;;;;;;;;2201129;59;2242;-79
2024/03/13 08:22:58;;;;;;;;;;;;;;;;;;2202114;59;2202;-79
2024/03/13 08:25:29;;;;;;;;;;;;;;;;;;2202359;67;2378;-79
2024/03/13 08:27:59;;;;;;;;;;;;;;;;;;2201955;59;2175;-79
2024/03/13 08:30:29;;;;;;;;;;;;;;;;;;2201874;67;2316;-79
2024/03/13 08:33:01;;;;;;;;;;;;;;;;;;2202936;59;1857;-79
2024/03/13 08:35:32;;;;;;;;;;;;;;;;;;2203728;67;1318;-79
2024/03/13 08:38:02;;;;;;;;;;;;;;;;;;2204054;59;1605;-79
2024/03/13 08:40:33;;;;;;;;;;;;;;;;;;2203745;59;1843;-79
2024/03/13 08:43:04;;;;;;;;;;;;;;;;;;2203030;59;2064;-79
2024/03/13 08:45:34;;;;;;;;;;;;;;;;;;2203979;59;2154;-80
2024/03/13 08:48:07;;;;;;;;;;;;;;;;;;2204802;59;2140;-79
2024/03/13 08:50:40;;;;;;;;;;;;;;;;;;2203818;59;1990;-79
2024/03/13 08:53:14;;;;;;;;;;;;;;;;;;2203364;59;2161;-79
2024/03/13 08:55:44;;;;;;;;;;;;;;;;;;2201679;59;2166;-79
2024/03/13 08:58:14;;;;;;;;;;;;;;;;;;2204169;59;1342;-80
2024/03/13 09:00:44;;;;;;;;;;;;;;;;;;2203213;59;1852;-79
2024/03/13 09:03:14;;;;;;;;;;;;;;;;;;2204959;67;1252;-79
2024/03/13 09:05:45;;;;;;;;;;;;;;;;;;2204946;67;1394;-80
2024/03/13 09:08:18;;;;;;;;;;;;;;;;;;2205471;67;1468;-79
2024/03/13 09:10:48;;;;;;;;;;;;;;;;;;2206858;59;2290;-79
2024/03/13 09:13:19;;;;;;;;;;;;;;;;;;2203787;59;1413;-79
2024/03/13 09:15:49;;;;;;;;;;;;;;;;;;2202451;67;1706;-79
2024/03/13 09:18:20;;;;;;;;;;;;;;;;;;2202850;59;1835;-79
2024/03/13 09:20:51;;;;;;;;;;;;;;;;;;2204166;59;2205;-83
2024/03/13 09:23:21;;;;;;;;;;;;;;;;;;2202557;62;1418;-84
2024/03/13 09:25:51;;;;;;;;;;;;;;;;;;2204391;59;2070;-80
2024/03/13 09:28:21;;;;;;;;;;;;;;;;;;2204913;67;1624;-80
2024/03/13 09:30:51;;;;;;;;;;;;;;;;;;2204905;59;1947;-79
2024/03/13 09:33:22;;;;;;;;;;;;;;;;;;2202964;67;1771;-82
2024/03/13 09:35:53;;;;;;;;;;;;;;;;;;2203904;59;2070;-81
2024/03/13 09:38:25;;;;;;;;;;;;;;;;;;2203343;59;1646;-81
2024/03/13 09:40:55;;;;;;;;;;;;;;;;;;2204910;67;1887;-82
2024/03/13 09:43:29;;;;;;;;;;;;;;;;;;2208717;59;2123;-80
2024/03/13 09:46:02;;;;;;;;;;;;;;;;;;2212977;59;1273;-79
2024/03/13 09:48:34;;;;;;;;;;;;;;;;;;2208009;59;1461;-79
2024/03/13 09:51:05;;;;;;;;;;;;;;;;;;2201746;59;2282;-80
2024/03/13 09:53:36;;;;;;;;;;;;;;;;;;2201779;59;2060;-79
2024/03/13 09:56:13;;;;;;;;;;;;;;;;;;2202739;59;2567;-79
2024/03/13 09:58:45;;;;;;;;;;;;;;;;;;2202869;59;1922;-79
2024/03/13 10:01:20;;;;;;;;;;;;;;;;;;2201687;59;1830;-79
2024/03/13 10:03:55;;;;;;;;;;;;;;;;;;2200016;59;2122;-80
2024/03/13 10:06:27;;;;;;;;;;;;;;;;;;2202437;59;2283;-80
2024/03/13 10:08:59;;;;;;;;;;;;;;;;;;2203885;59;2103;-81
2024/03/13 10:11:30;;;;;;;;;;;;;;;;;;2202741;59;2179;-81
2024/03/13 10:14:00;;;;;;;;;;;;;;;;;;2203297;59;2184;-82
2024/03/13 10:16:33;;;;;;;;;;;;;;;;;;2203170;67;3389;-82
2024/03/13 10:19:03;;;;;;;;;;;;;;;;;;2203723;59;2802;-81
2024/03/13 10:21:34;;;;;;;;;;;;;;;;;;2202889;67;1491;-83
2024/03/13 10:24:04;;;;;;;;;;;;;;;;;;2205008;59;2169;-82
2024/03/13 10:26:38;;;;;;;;;;;;;;;;;;2212774;67;3451;-81
2024/03/13 10:29:10;;;;;;;;;;;;;;;;;;2215722;59;2254;-81
2024/03/13 10:34:15;;;;;;;;;;;;;;;;;;2195507;59;2261;-23
2024/03/13 10:36:45;;;;;;;;;;;;;;;;;;2193146;59;2133;-24
2024/03/13 10:39:17;;;;;;;;;;;;;;;;;;2198015;59;3294;-24
2024/03/13 10:41:49;;;;;;;;;;;;;;;;;;2196530;59;3261;-24
2024/03/13 10:44:21;;;;;;;;;;;;;;;;;;2199809;59;2188;-24
2024/03/13 10:46:51;;;;;;;;;;;;;;;;;;2193729;59;2498;-23
2024/03/13 10:49:21;;;;;;;;;;;;;;;;;;2199140;59;3013;-24
2024/03/13 10:51:54;;;;;;;;;;;;;;;;;;2193187;59;2166;-24
2024/03/13 10:54:26;;;;;;;;;;;;;;;;;;2195163;59;2156;-24
2024/03/13 10:56:56;;;;;;;;;;;;;;;;;;2195939;59;2355;-24
2024/03/13 10:59:29;;;;;;;;;;;;;;;;;;2194433;67;1815;-25
2024/03/13 11:01:59;;;;;;;;;;;;;;;;;;2193638;59;2678;-24
2024/03/13 11:04:29;;;;;;;;;;;;;;;;;;2196993;59;1936;-24
2024/03/13 11:07:00;;;;;;;;;;;;;;;;;;2193776;59;2429;-24
2024/03/13 11:09:31;;;;;;;;;;;;;;;;;;2196012;59;2460;-25
2024/03/13 11:12:03;;;;;;;;;;;;;;;;;;2193765;59;2427;-24
2024/03/13 11:14:34;;;;;;;;;;;;;;;;;;2196052;59;3281;-24
2024/03/13 11:17:06;;;;;;;;;;;;;;;;;;2197981;59;2470;-25
2024/03/13 11:19:37;;;;;;;;;;;;;;;;;;2197379;59;3579;-25
2024/03/13 11:22:08;;;;;;;;;;;;;;;;;;2194809;59;2182;-25
2024/03/13 11:24:39;;;;;;;;;;;;;;;;;;2194383;67;1959;-25
2024/03/13 11:27:16;;;;;;;;;;;;;;;;;;2197873;67;1841;-24
2024/03/13 11:29:48;;;;;;;;;;;;;;;;;;2196814;67;1996;-25
2024/03/13 11:32:19;;;;;;;;;;;;;;;;;;2193437;59;2270;-24
2024/03/13 11:34:49;;;;;;;;;;;;;;;;;;2195007;59;2517;-25
2024/03/13 11:37:21;;;;;;;;;;;;;;;;;;2191601;59;2144;-23
2024/03/13 11:39:54;;;;;;;;;;;;;;;;;;2196603;59;3250;-24
2024/03/13 11:42:31;;;;;;;;;;;;;;;;;;2197909;67;1825;-24
2024/03/13 11:45:15;;;;;;;;;;;;;;;;;;2198540;59;2070;-23
2024/03/13 11:47:48;;;;;;;;;;;;;;;;;;2194035;59;2413;-24
2024/03/13 11:50:18;;;;;;;;;;;;;;;;;;2197918;59;2122;-25
2024/03/13 11:53:01;;;;;;;;;;;;;;;;;;2195498;59;1949;-25
2024/03/13 11:55:34;;;;;;;;;;;;;;;;;;2196650;67;1918;-24
2024/03/13 11:58:17;;;;;;;;;;;;;;;;;;2198239;67;2004;-24
2024/03/13 12:00:47;;;;;;;;;;;;;;;;;;2193992;67;1839;-24
2024/03/13 12:03:19;;;;;;;;;;;;;;;;;;2193059;59;2330;-25
2024/03/13 12:05:51;;;;;;;;;;;;;;;;;;2193242;59;1958;-24
2024/03/13 12:08:22;;;;;;;;;;;;;;;;;;2198804;59;1792;-23
2024/03/13 12:10:53;;;;;;;;;;;;;;;;;;2194452;67;1980;-24
2024/03/13 12:13:24;;;;;;;;;;;;;;;;;;2196409;59;1826;-23
2024/03/13 12:15:54;;;;;;;;;;;;;;;;;;2196276;59;1986;-23
2024/03/13 12:18:27;;;;;;;;;;;;;;;;;;2198942;59;2120;-24
2024/03/13 12:20:57;;;;;;;;;;;;;;;;;;2196626;59;3480;-24
2024/03/13 12:23:28;;;;;;;;;;;;;;;;;;2199037;67;1832;-24
2024/03/13 12:25:58;;;;;;;;;;;;;;;;;;2197053;67;1902;-24
2024/03/13 12:28:30;;;;;;;;;;;;;;;;;;2195746;67;1800;-23
2024/03/13 12:31:01;;;;;;;;;;;;;;;;;;2193929;67;1996;-24
2024/03/13 12:33:33;;;;;;;;;;;;;;;;;;2195207;59;1889;-24
2024/03/13 12:36:04;;;;;;;;;;;;;;;;;;2194484;67;2019;-24
2024/03/13 12:38:36;;;;;;;;;;;;;;;;;;2191050;59;2135;-23
2024/03/13 12:41:10;;;;;;;;;;;;;;;;;;2196719;59;3249;-24
2024/03/13 12:43:40;;;;;;;;;;;;;;;;;;2194657;67;1874;-24
2024/03/13 12:46:13;;;;;;;;;;;;;;;;;;2197984;59;2065;-24
2024/03/13 12:48:44;;;;;;;;;;;;;;;;;;2197411;59;2130;-24
2024/03/13 12:51:16;;;;;;;;;;;;;;;;;;2195353;67;1940;-24
2024/03/13 12:53:46;;;;;;;;;;;;;;;;;;2193789;67;2187;-24
2024/03/13 12:56:18;;;;;;;;;;;;;;;;;;2192435;67;1856;-24
2024/03/13 12:58:49;;;;;;;;;;;;;;;;;;2198341;67;1767;-24
2024/03/13 13:01:19;;;;;;;;;;;;;;;;;;2195177;59;2535;-23
2024/03/13 13:03:49;;;;;;;;;;;;;;;;;;2197452;67;1857;-21
2024/03/13 13:06:20;;;;;;;;;;;;;;;;;;2194707;67;1950;-22
2024/03/13 13:08:50;;;;;;;;;;;;;;;;;;2197281;67;2630;-25
2024/03/13 13:11:20;;;;;;;;;;;;;;;;;;2198164;59;1986;-25
2024/03/13 13:13:51;;;;;;;;;;;;;;;;;;2197983;59;1616;-24
2024/03/13 13:16:21;;;;;;;;;;;;;;;;;;2199185;67;2272;-24
2024/03/13 13:18:52;;;;;;;;;;;;;;;;;;2196305;67;2315;-24
2024/03/13 13:21:22;;;;;;;;;;;;;;;;;;2196495;67;1817;-23
2024/03/13 13:23:52;;;;;;;;;;;;;;;;;;2199300;67;1805;-24
2024/03/13 13:26:22;;;;;;;;;;;;;;;;;;2197060;67;2713;-23
2024/03/13 13:28:53;;;;;;;;;;;;;;;;;;2199519;67;1853;-24
2024/03/13 13:31:24;;;;;;;;;;;;;;;;;;2194442;67;2047;-24
2024/03/13 13:33:54;;;;;;;;;;;;;;;;;;2199185;59;1900;-24
2024/03/13 13:36:24;;;;;;;;;;;;;;;;;;2200095;67;1792;-23
2024/03/13 13:38:55;;;;;;;;;;;;;;;;;;2196383;59;1916;-24
2024/03/13 13:41:25;;;;;;;;;;;;;;;;;;2200206;59;1971;-23
2024/03/13 13:43:55;;;;;;;;;;;;;;;;;;2195769;67;2290;-24
2024/03/13 13:46:25;;;;;;;;;;;;;;;;;;2196485;59;2977;-23
2024/03/13 13:48:56;;;;;;;;;;;;;;;;;;2199399;59;2398;-25
2024/03/13 13:51:26;;;;;;;;;;;;;;;;;;2199669;67;1937;-24
2024/03/13 13:53:56;;;;;;;;;;;;;;;;;;2198832;67;2110;-23
2024/03/13 13:56:26;;;;;;;;;;;;;;;;;;2196531;67;2234;-23
2024/03/13 13:58:57;;;;;;;;;;;;;;;;;;2198706;67;1883;-24
2024/03/13 14:01:28;;;;;;;;;;;;;;;;;;2197961;67;2185;-25
2024/03/13 14:03:58;;;;;;;;;;;;;;;;;;2199650;67;1782;-23
2024/03/13 14:06:29;;;;;;;;;;;;;;;;;;2196941;67;2360;-25
2024/03/13 14:09:01;;;;;;;;;;;;;;;;;;2199700;67;2267;-24
2024/03/13 14:11:31;;;;;;;;;;;;;;;;;;2198765;67;2408;-23
2024/03/13 14:14:01;;;;;;;;;;;;;;;;;;2198755;59;1822;-23
2024/03/13 14:16:32;;;;;;;;;;;;;;;;;;2195888;59;2165;-24
2024/03/13 14:19:02;;;;;;;;;;;;;;;;;;2195900;59;2381;-24
2024/03/13 14:21:32;;;;;;;;;;;;;;;;;;2195874;59;2561;-24
2024/03/13 14:24:04;;;;;;;;;;;;;;;;;;2197942;59;2249;-25
2024/03/13 14:26:36;;;;;;;;;;;;;;;;;;2198932;59;2406;-23
2024/03/13 14:29:06;;;;;;;;;;;;;;;;;;2197656;59;2199;-24
2024/03/13 14:31:37;;;;;;;;;;;;;;;;;;2199523;67;1988;-25
2024/03/13 14:34:07;;;;;;;;;;;;;;;;;;2192344;59;2431;-23
2024/03/13 14:36:37;;;;;;;;;;;;;;;;;;2200183;67;2339;-25
2024/03/13 14:39:15;;;;;;;;;;;;;;;;;;2191300;59;1922;-23
2024/03/13 14:41:45;;;;;;;;;;;;;;;;;;2197423;67;1891;-22
2024/03/13 14:44:16;;;;;;;;;;;;;;;;;;2197034;59;2436;-23
2024/03/13 14:46:46;;;;;;;;;;;;;;;;;;2195879;59;2593;-24
2024/03/13 14:49:18;;;;;;;;;;;;;;;;;;2199535;59;1849;-24
2024/03/13 14:51:48;;;;;;;;;;;;;;;;;;2194975;59;2189;-24
2024/03/13 14:54:19;;;;;;;;;;;;;;;;;;2196821;67;1786;-24
2024/03/13 14:56:53;;;;;;;;;;;;;;;;;;2199738;67;1787;-23
2024/03/13 14:59:24;;;;;;;;;;;;;;;;;;2196392;67;2351;-22
2024/03/13 15:01:55;;;;;;;;;;;;;;;;;;2196398;67;2115;-23
2024/03/13 15:04:26;;;;;;;;;;;;;;;;;;2199225;59;3283;-22
2024/03/13 15:06:58;;;;;;;;;;;;;;;;;;2198616;59;2030;-24
2024/03/13 15:09:28;;;;;;;;;;;;;;;;;;2199802;67;1944;-23
2024/03/13 15:11:58;;;;;;;;;;;;;;;;;;2196101;67;2111;-23
2024/03/13 15:14:28;;;;;;;;;;;;;;;;;;2199174;59;1343;-23
2024/03/13 15:16:58;;;;;;;;;;;;;;;;;;2196223;67;1817;-23
2024/03/13 15:19:29;;;;;;;;;;;;;;;;;;2197275;67;1563;-24
2024/03/13 15:21:59;;;;;;;;;;;;;;;;;;2199457;59;1122;-24
2024/03/13 15:24:30;;;;;;;;;;;;;;;;;;2199152;59;1745;-24
2024/03/13 15:27:01;;;;;;;;;;;;;;;;;;2198859;59;3455;-24
2024/03/13 15:29:32;;;;;;;;;;;;;;;;;;2199553;67;1460;-24
2024/03/13 15:32:03;;;;;;;;;;;;;;;;;;2195486;59;1936;-23
2024/03/13 15:34:33;;;;;;;;;;;;;;;;;;2199549;59;1791;-23
2024/03/13 15:37:04;;;;;;;;;;;;;;;;;;2198493;59;1604;-23
2024/03/13 15:39:35;;;;;;;;;;;;;;;;;;2196361;59;1642;-24
2024/03/13 15:42:05;;;;;;;;;;;;;;;;;;2199662;67;1397;-23
2024/03/13 15:44:35;;;;;;;;;;;;;;;;;;2199458;59;1500;-23
2024/03/13 15:47:06;;;;;;;;;;;;;;;;;;2194982;59;2063;-24
2024/03/13 15:49:36;;;;;;;;;;;;;;;;;;2199929;59;1685;-23
2024/03/13 15:52:06;;;;;;;;;;;;;;;;;;2195090;67;1992;-23
2024/03/13 15:54:36;;;;;;;;;;;;;;;;;;2199391;67;1436;-24
2024/03/13 15:57:07;;;;;;;;;;;;;;;;;;2198694;67;1282;-21
2024/03/13 15:59:38;;;;;;;;;;;;;;;;;;2199196;67;1638;-22
2024/03/13 16:02:08;;;;;;;;;;;;;;;;;;2195896;67;1692;-22
2024/03/13 16:04:39;;;;;;;;;;;;;;;;;;2196394;67;1635;-21
2024/03/13 16:07:10;;;;;;;;;;;;;;;;;;2195888;59;1503;-21
2024/03/13 16:09:41;;;;;;;;;;;;;;;;;;2198938;67;1135;-21
2024/03/13 16:12:11;;;;;;;;;;;;;;;;;;2198108;67;2002;-21
2024/03/13 16:14:41;;;;;;;;;;;;;;;;;;2192927;59;1761;-21
2024/03/13 16:17:11;;;;;;;;;;;;;;;;;;2199070;59;2070;-21
2024/03/13 16:19:42;;;;;;;;;;;;;;;;;;2196337;59;1502;-21
2024/03/13 16:22:13;;;;;;;;;;;;;;;;;;2199161;67;1639;-21
2024/03/13 16:24:45;;;;;;;;;;;;;;;;;;2198910;67;1362;-21
2024/03/13 16:27:15;;;;;;;;;;;;;;;;;;2199643;67;1288;-21
2024/03/13 16:29:46;;;;;;;;;;;;;;;;;;2196697;67;1420;-21
2024/03/13 16:32:18;;;;;;;;;;;;;;;;;;2199595;59;1940;-21
2024/03/13 16:34:48;;;;;;;;;;;;;;;;;;2199678;59;1763;-21
2024/03/13 16:37:20;;;;;;;;;;;;;;;;;;2196668;59;1848;-21
2024/03/13 16:39:51;;;;;;;;;;;;;;;;;;2195738;59;1846;-21
2024/03/13 16:42:21;;;;;;;;;;;;;;;;;;2198796;67;2193;-21
2024/03/13 16:44:52;;;;;;;;;;;;;;;;;;2194199;59;1950;-21
2024/03/13 16:47:22;;;;;;;;;;;;;;;;;;2199307;59;1804;-21
2024/03/13 16:49:53;;;;;;;;;;;;;;;;;;2194376;67;1639;-21
2024/03/13 16:52:23;;;;;;;;;;;;;;;;;;2194741;67;1927;-21
2024/03/13 16:54:53;;;;;;;;;;;;;;;;;;2194703;67;1699;-21
2024/03/13 16:57:24;;;;;;;;;;;;;;;;;;2199396;67;1502;-21
2024/03/13 16:59:54;;;;;;;;;;;;;;;;;;2198297;67;1473;-21
2024/03/13 17:02:26;;;;;;;;;;;;;;;;;;2197760;67;1599;-20
2024/03/13 17:04:57;;;;;;;;;;;;;;;;;;2198373;67;1591;-21
2024/03/13 17:07:28;;;;;;;;;;;;;;;;;;2198175;67;1728;-21
2024/03/13 17:09:58;;;;;;;;;;;;;;;;;;2193141;67;1697;-20
2024/03/13 17:12:28;;;;;;;;;;;;;;;;;;2194357;67;1947;-21
2024/03/13 17:14:59;;;;;;;;;;;;;;;;;;2195139;59;1639;-21
2024/03/13 17:17:29;;;;;;;;;;;;;;;;;;2194611;67;1598;-21
2024/03/13 17:20:00;;;;;;;;;;;;;;;;;;2194608;67;1612;-21
2024/03/13 17:22:30;;;;;;;;;;;;;;;;;;2199335;59;2137;-23
2024/03/13 17:25:00;;;;;;;;;;;;;;;;;;2195443;67;1735;-23
2024/03/13 17:27:31;;;;;;;;;;;;;;;;;;2194941;67;1528;-23
2024/03/13 17:30:02;;;;;;;;;;;;;;;;;;2195101;67;1700;-23
2024/03/13 17:32:32;;;;;;;;;;;;;;;;;;2197799;59;2008;-23
2024/03/13 17:35:04;;;;;;;;;;;;;;;;;;2198227;67;1968;-24
2024/03/13 17:37:34;;;;;;;;;;;;;;;;;;2199464;59;1944;-24
2024/03/13 17:40:07;;;;;;;;;;;;;;;;;;2194727;59;1790;-23
2024/03/13 17:42:38;;;;;;;;;;;;;;;;;;2199981;67;1710;-23
2024/03/13 17:45:10;;;;;;;;;;;;;;;;;;2198348;59;1706;-23
2024/03/13 17:47:40;;;;;;;;;;;;;;;;;;2196766;59;1528;-24
2024/03/13 17:50:10;;;;;;;;;;;;;;;;;;2198364;67;1604;-23